createdAt,value
2023-01-25T00:01:04.530Z,14.75
2023-01-25T00:03:31.105Z,15.93
2023-01-25T00:06:01.682Z,14.52
2023-01-25T00:08:28.294Z,15.38
2023-01-25T00:10:56.875Z,14.82
2023-01-25T00:13:23.959Z,14.82
2023-01-25T00:15:50.318Z,14.25
2023-01-25T00:18:16.654Z,14.57
2023-01-25T00:20:42.991Z,16.13
2023-01-25T00:23:09.405Z,15.23
2023-01-25T00:25:35.860Z,14.95
2023-01-25T00:28:02.183Z,14.88
2023-01-25T00:30:28.600Z,15.82
2023-01-25T00:33:27.296Z,16.08
2023-01-25T00:35:56.816Z,16.52
2023-01-25T00:38:26.287Z,16.17
2023-01-25T00:40:52.727Z,15.38
2023-01-25T00:43:19.087Z,15.40
2023-01-25T00:45:45.748Z,15.85
2023-01-25T00:48:12.146Z,15.52
2023-01-25T00:50:38.567Z,16.85
2023-01-25T00:53:05.013Z,15.95
2023-01-25T00:55:31.645Z,15.25
2023-01-25T00:57:58.134Z,15.05
2023-01-25T01:00:24.536Z,16.17
2023-01-25T01:02:50.967Z,15.88
2023-01-25T01:05:17.433Z,16.13
2023-01-25T01:07:43.910Z,16.02
2023-01-25T01:10:10.687Z,15.23
2023-01-25T01:12:37.092Z,15.93
2023-01-25T01:15:03.931Z,17.08
2023-01-25T01:17:30.303Z,16.63
2023-01-25T01:19:56.636Z,16.75
2023-01-25T01:22:23.101Z,16.80
2023-01-25T01:24:49.607Z,16.70
2023-01-25T01:27:16.022Z,16.25
2023-01-25T01:29:42.373Z,16.45
2023-01-25T01:32:08.799Z,16.80
2023-01-25T01:34:35.335Z,16.58
2023-01-25T01:37:01.765Z,17.40
2023-01-25T01:39:28.178Z,17.33
2023-01-25T01:41:54.604Z,17.17
2023-01-25T01:44:42.212Z,16.98
2023-01-25T01:47:15.554Z,16.10
2023-01-25T01:49:47.561Z,16.98
2023-01-25T01:52:17.764Z,15.32
2023-01-25T01:54:57.076Z,16.75
2023-01-25T01:57:29.951Z,16.08
2023-01-25T02:00:02.627Z,16.40
2023-01-25T02:02:29.234Z,15.48
2023-01-25T02:04:59.788Z,15.27
2023-01-25T02:07:35.604Z,15.45
2023-01-25T02:10:04.538Z,15.77
2023-01-25T02:12:32.122Z,14.15
2023-01-25T02:14:58.650Z,14.77
2023-01-25T02:17:35.430Z,14.80
2023-01-25T02:20:05.028Z,14.70
2023-01-25T02:22:44.893Z,15.98
2023-01-25T02:25:13.476Z,15.43
2023-01-25T02:27:46.351Z,14.80
2023-01-25T02:30:12.847Z,14.85
2023-01-25T02:32:39.333Z,15.10
2023-01-25T02:35:06.811Z,15.02
2023-01-25T02:37:33.830Z,15.50
2023-01-25T02:40:00.283Z,15.35
2023-01-25T02:42:30.802Z,15.50
2023-01-25T02:44:57.215Z,16.98
2023-01-25T02:47:23.652Z,17.02
2023-01-25T02:49:50.083Z,16.15
2023-01-25T02:52:16.521Z,16.38
2023-01-25T02:54:42.963Z,16.45
2023-01-25T02:57:09.712Z,15.95
2023-01-25T02:59:36.853Z,15.55
2023-01-25T03:02:03.176Z,16.20
2023-01-25T03:04:29.620Z,16.33
2023-01-25T03:06:55.980Z,15.73
2023-01-25T03:09:22.395Z,15.68
2023-01-25T03:11:48.945Z,16.35
2023-01-25T03:14:15.389Z,15.93
2023-01-25T03:16:41.804Z,15.25
2023-01-25T03:19:08.224Z,16.48
2023-01-25T03:21:34.575Z,15.57
2023-01-25T03:24:02.062Z,16.33
2023-01-25T03:26:29.497Z,15.60
2023-01-25T03:28:55.920Z,17.20
2023-01-25T03:31:22.584Z,15.70
2023-01-25T03:33:49.743Z,16.67
2023-01-25T03:36:16.310Z,16.35
2023-01-25T03:38:42.700Z,16.73
2023-01-25T03:41:09.420Z,16.98
2023-01-25T03:43:35.774Z,17.17
2023-01-25T03:46:02.683Z,17.52
2023-01-25T03:48:30.164Z,17.50
2023-01-25T03:50:58.846Z,17.08
2023-01-25T03:53:29.620Z,16.92
2023-01-25T03:56:02.056Z,17.80
2023-01-25T03:58:30.208Z,18.33
2023-01-25T04:00:59.463Z,17.33
2023-01-25T04:03:26.383Z,17.55
2023-01-25T04:05:53.418Z,18.45
2023-01-25T04:08:20.273Z,19.85
2023-01-25T04:10:54.219Z,19.70
2023-01-25T04:13:22.056Z,19.45
2023-01-25T04:15:49.095Z,19.10
2023-01-25T04:18:16.079Z,20.63
2023-01-25T04:20:43.271Z,21.23
2023-01-25T04:23:10.356Z,20.73
2023-01-25T04:25:37.589Z,20.88
2023-01-25T04:28:05.072Z,20.83
2023-01-25T04:30:31.491Z,20.83
2023-01-25T04:33:03.172Z,21.05
2023-01-25T04:35:29.582Z,21.17
2023-01-25T04:37:57.433Z,20.13
2023-01-25T04:40:24.081Z,21.17
2023-01-25T04:42:50.413Z,22.08
2023-01-25T04:45:16.850Z,20.85
2023-01-25T04:47:43.267Z,21.65
2023-01-25T04:50:10.219Z,20.85
2023-01-25T04:52:36.560Z,21.70
2023-01-25T04:55:03.184Z,22.90
2023-01-25T04:57:29.650Z,22.23
2023-01-25T04:59:56.025Z,22.48
2023-01-25T05:02:22.576Z,22.92
2023-01-25T05:04:49.000Z,22.98
2023-01-25T05:07:15.460Z,22.20
2023-01-25T05:09:41.909Z,23.70
2023-01-25T05:12:11.742Z,23.30
2023-01-25T05:14:38.899Z,21.67
2023-01-25T05:17:06.558Z,23.27
2023-01-25T05:19:33.933Z,23.33
2023-01-25T05:22:02.735Z,23.83
2023-01-25T05:24:31.580Z,24.73
2023-01-25T05:27:01.507Z,24.77
2023-01-25T05:29:28.513Z,24.13
2023-01-25T05:31:55.226Z,24.30
2023-01-25T05:34:21.825Z,23.83
2023-01-25T05:36:48.254Z,24.38
2023-01-25T05:39:14.792Z,24.63
2023-01-25T05:41:41.205Z,23.40
2023-01-25T05:44:07.567Z,26.25
2023-01-25T05:46:34.034Z,26.70
2023-01-25T05:49:00.510Z,24.88
2023-01-25T05:51:27.083Z,25.40
2023-01-25T05:53:56.568Z,25.30
2023-01-25T05:56:23.395Z,25.58
2023-01-25T05:58:57.175Z,24.88
2023-01-25T06:01:24.281Z,24.80
2023-01-25T06:03:51.183Z,26.17
2023-01-25T06:06:17.833Z,24.67
2023-01-25T06:08:44.650Z,25.88
2023-01-25T06:11:13.367Z,26.10
2023-01-25T06:13:39.840Z,25.77
2023-01-25T06:16:06.665Z,26.35
2023-01-25T06:18:34.729Z,25.73
2023-01-25T06:21:02.904Z,24.27
2023-01-25T06:23:29.848Z,25.42
2023-01-25T06:26:05.403Z,25.35
2023-01-25T06:28:36.137Z,24.27
2023-01-25T06:31:10.787Z,24.38
2023-01-25T06:33:37.909Z,25.65
2023-01-25T06:36:07.140Z,25.00
2023-01-25T06:38:33.806Z,24.98
2023-01-25T06:41:01.745Z,24.70
2023-01-25T06:43:28.446Z,24.17
2023-01-25T06:46:01.928Z,23.20
2023-01-25T06:48:31.375Z,23.67
2023-01-25T06:51:00.048Z,23.85
2023-01-25T06:53:28.210Z,22.65
2023-01-25T06:56:02.218Z,22.77
2023-01-25T06:58:30.112Z,24.42
2023-01-25T07:01:13.484Z,23.45
2023-01-25T07:03:40.096Z,24.88
2023-01-25T07:06:08.292Z,24.73
2023-01-25T07:08:35.967Z,25.05
2023-01-25T07:11:05.261Z,24.25
2023-01-25T07:13:33.726Z,23.92
2023-01-25T07:16:05.756Z,23.35
2023-01-25T07:18:33.188Z,23.23
2023-01-25T07:21:08.044Z,23.10
2023-01-25T07:23:37.866Z,21.48
2023-01-25T07:26:05.853Z,22.45
2023-01-25T07:28:33.001Z,22.40
2023-01-25T07:31:06.532Z,23.30
2023-01-25T07:33:35.538Z,22.92
2023-01-25T07:36:03.737Z,21.35
2023-01-25T07:38:30.180Z,22.10
2023-01-25T07:40:57.216Z,23.13
2023-01-25T07:43:24.271Z,22.83
2023-01-25T07:45:50.933Z,23.23
2023-01-25T07:48:18.577Z,23.77
2023-01-25T07:50:49.652Z,22.75
2023-01-25T07:53:17.186Z,24.05
2023-01-25T07:55:43.649Z,22.85
2023-01-25T07:58:11.105Z,24.77
2023-01-25T08:00:37.628Z,24.42
2023-01-25T08:03:04.279Z,25.08
2023-01-25T08:05:30.637Z,23.23
2023-01-25T08:07:56.976Z,22.63
2023-01-25T08:10:23.345Z,22.13
2023-01-25T08:12:49.778Z,21.88
2023-01-25T08:15:16.219Z,23.17
2023-01-25T08:17:42.568Z,23.15
2023-01-25T08:20:09.719Z,22.38
2023-01-25T08:22:36.486Z,23.08
2023-01-25T08:25:04.232Z,21.60
2023-01-25T08:27:30.652Z,21.92
2023-01-25T08:29:59.422Z,21.70
2023-01-25T08:32:25.841Z,22.83
2023-01-25T08:34:52.218Z,22.30
2023-01-25T08:37:18.631Z,22.08
2023-01-25T08:39:44.974Z,22.10
2023-01-25T08:42:11.401Z,22.33
2023-01-25T08:44:37.757Z,22.83
2023-01-25T08:47:04.164Z,21.88
2023-01-25T08:49:31.648Z,22.73
2023-01-25T08:51:58.422Z,22.00
2023-01-25T08:54:25.027Z,22.88
2023-01-25T08:56:51.441Z,23.08
2023-01-25T08:59:17.870Z,22.67
2023-01-25T09:01:44.326Z,21.95
2023-01-25T09:04:10.751Z,21.38
2023-01-25T09:06:37.172Z,21.83
2023-01-25T09:09:04.790Z,22.15
2023-01-25T09:11:34.513Z,20.83
2023-01-25T09:14:00.976Z,20.55
2023-01-25T09:16:28.827Z,21.90
2023-01-25T09:18:57.942Z,21.25
2023-01-25T09:21:24.716Z,21.35
2023-01-25T09:24:05.417Z,21.08
2023-01-25T09:26:40.677Z,21.92
2023-01-25T09:29:08.482Z,21.50
2023-01-25T09:31:35.731Z,22.02
2023-01-25T09:34:02.379Z,21.60
2023-01-25T09:36:28.786Z,20.67
2023-01-25T09:38:55.949Z,22.33
2023-01-25T09:41:28.588Z,22.55
2023-01-25T09:44:15.247Z,22.20
2023-01-25T09:46:52.430Z,22.20
2023-01-25T09:49:27.976Z,22.50
2023-01-25T09:52:15.721Z,20.55
2023-01-25T09:54:47.443Z,21.33
2023-01-25T09:57:28.441Z,20.38
2023-01-25T09:59:56.505Z,20.55
2023-01-25T10:02:39.833Z,21.77
2023-01-25T10:05:15.483Z,21.40
2023-01-25T10:08:10.435Z,21.65
2023-01-25T10:10:42.166Z,21.50
2023-01-25T10:13:14.007Z,22.08
2023-01-25T10:15:44.767Z,21.38
2023-01-25T10:18:24.691Z,22.65
2023-01-25T10:20:57.079Z,21.58
2023-01-25T10:23:29.461Z,21.90
2023-01-25T10:26:10.926Z,22.90
2023-01-25T10:28:49.956Z,22.80
2023-01-25T10:31:25.797Z,23.02
2023-01-25T10:33:53.901Z,22.55
2023-01-25T10:36:29.952Z,22.77
2023-01-25T10:39:01.511Z,21.90
2023-01-25T10:41:56.612Z,22.65
2023-01-25T10:44:25.963Z,21.35
2023-01-25T10:46:58.528Z,21.58
2023-01-25T10:49:39.550Z,21.65
2023-01-25T10:52:23.733Z,22.15
2023-01-25T10:55:14.941Z,21.77
2023-01-25T10:57:48.139Z,21.55
2023-01-25T11:00:23.380Z,20.90
2023-01-25T11:02:49.865Z,21.42
2023-01-25T11:05:35.693Z,22.27
2023-01-25T11:08:42.980Z,19.40
2023-01-25T11:11:31.135Z,19.90
2023-01-25T11:13:57.758Z,19.73
2023-01-25T11:16:46.087Z,20.45
2023-01-25T11:19:27.603Z,20.80
2023-01-25T11:21:58.644Z,21.13
2023-01-25T11:24:30.132Z,19.38
2023-01-25T11:27:12.897Z,21.25
2023-01-25T11:29:39.488Z,20.58
2023-01-25T11:32:20.218Z,20.73
2023-01-25T11:34:47.150Z,21.73
2023-01-25T11:37:35.412Z,20.83
2023-01-25T11:40:19.275Z,19.35
2023-01-25T11:42:48.774Z,19.48
2023-01-25T11:45:33.973Z,20.80
2023-01-25T11:48:18.376Z,20.60
2023-01-25T11:50:51.309Z,20.00
2023-01-25T11:53:36.605Z,21.73
2023-01-25T11:56:24.279Z,20.00
2023-01-25T11:59:10.493Z,20.17
2023-01-25T12:02:09.802Z,20.92
2023-01-25T12:04:52.523Z,20.58
2023-01-25T12:08:04.412Z,20.55
2023-01-25T12:10:55.188Z,20.63
2023-01-25T12:13:34.947Z,20.27
2023-01-25T12:16:07.649Z,21.50
2023-01-25T12:18:51.392Z,19.85
2023-01-25T12:21:32.621Z,21.40
2023-01-25T12:24:24.768Z,20.65
2023-01-25T12:27:06.268Z,20.08
2023-01-25T12:29:38.556Z,20.65
2023-01-25T12:32:17.068Z,20.55
2023-01-25T12:34:49.242Z,20.70
2023-01-25T12:37:21.626Z,21.67
2023-01-25T12:40:12.531Z,23.17
2023-01-25T12:42:52.084Z,22.65
2023-01-25T12:45:27.964Z,22.02
2023-01-25T12:48:01.621Z,22.67
2023-01-25T12:50:38.747Z,22.05
2023-01-25T12:53:25.539Z,22.70
2023-01-25T12:55:53.205Z,20.85
2023-01-25T12:58:38.565Z,21.52
2023-01-25T13:01:11.298Z,21.98
2023-01-25T13:04:15.047Z,20.98
2023-01-25T13:06:57.687Z,21.73
2023-01-25T13:09:33.311Z,21.95
2023-01-25T13:14:30.209Z,19.45
2023-01-25T13:17:22.242Z,21.58
2023-01-25T13:19:50.315Z,21.50
2023-01-25T13:22:45.376Z,22.05
2023-01-25T13:25:17.773Z,22.60
2023-01-25T13:27:44.215Z,24.27
2023-01-25T13:30:16.478Z,22.13
2023-01-25T13:32:51.927Z,22.55
2023-01-25T13:35:37.083Z,23.75
2023-01-25T13:38:24.461Z,24.47
2023-01-25T13:41:12.613Z,23.85
2023-01-25T13:43:41.061Z,24.42
2023-01-25T13:46:10.132Z,24.60
2023-01-25T13:48:45.463Z,24.73
2023-01-25T13:51:16.266Z,26.30
2023-01-25T13:53:43.410Z,24.95
2023-01-25T13:56:45.637Z,24.17
2023-01-25T13:59:26.434Z,24.25
2023-01-25T14:01:53.038Z,23.85
2023-01-25T14:04:19.714Z,24.92
2023-01-25T14:06:46.343Z,24.98
2023-01-25T14:09:17.149Z,24.27
2023-01-25T14:11:54.756Z,26.85
2023-01-25T14:14:34.513Z,25.35
2023-01-25T14:17:16.385Z,26.65
2023-01-25T14:19:46.229Z,27.05
2023-01-25T14:22:22.995Z,25.52
2023-01-25T14:25:12.153Z,25.92
2023-01-25T14:27:43.512Z,23.83
2023-01-25T14:30:18.877Z,25.40
2023-01-25T14:32:45.311Z,26.58
2023-01-25T14:35:43.033Z,27.02
2023-01-25T14:38:33.959Z,25.60
2023-01-25T14:41:12.197Z,25.77
2023-01-25T14:43:43.019Z,25.48
2023-01-25T14:46:18.642Z,26.67
2023-01-25T14:51:22.392Z,25.13
2023-01-25T14:53:55.838Z,27.48
2023-01-25T14:56:29.895Z,29.10
2023-01-25T14:59:00.029Z,28.38
2023-01-25T15:01:34.555Z,29.35
2023-01-25T15:04:01.056Z,28.80
2023-01-25T15:06:27.631Z,31.42
2023-01-25T15:08:54.268Z,30.88
2023-01-25T15:11:37.588Z,31.67
2023-01-25T15:14:19.795Z,33.42
2023-01-25T15:16:46.611Z,35.10
2023-01-25T15:19:25.491Z,35.78
2023-01-25T15:21:53.838Z,32.25
2023-01-25T15:24:20.436Z,36.00
2023-01-25T15:26:50.399Z,34.35
2023-01-25T15:29:23.487Z,36.40
2023-01-25T15:31:51.283Z,35.25
2023-01-25T15:34:30.250Z,36.60
2023-01-25T15:36:57.542Z,34.20
2023-01-25T15:39:24.017Z,35.60
2023-01-25T15:41:50.499Z,36.55
2023-01-25T15:44:17.544Z,33.03
2023-01-25T15:46:48.571Z,36.13
2023-01-25T15:49:24.769Z,38.88
2023-01-25T15:51:51.091Z,36.95
2023-01-25T15:54:17.504Z,38.08
2023-01-25T15:56:47.024Z,37.45
2023-01-25T15:59:17.122Z,38.80
2023-01-25T16:01:44.001Z,38.15
2023-01-25T16:04:13.518Z,39.58
2023-01-25T16:06:47.051Z,37.35
2023-01-25T16:09:26.645Z,37.03
2023-01-25T16:11:55.844Z,35.83
2023-01-25T16:14:23.751Z,34.75
2023-01-25T16:16:52.207Z,44.35
2023-01-25T16:19:21.917Z,37.97
2023-01-25T16:21:49.159Z,37.50
2023-01-25T16:24:15.616Z,39.05
2023-01-25T16:26:49.636Z,36.15
2023-01-25T16:29:16.044Z,39.83
2023-01-25T16:31:42.490Z,39.45
2023-01-25T16:34:09.329Z,39.90
2023-01-25T16:36:37.128Z,39.67
2023-01-25T16:39:20.023Z,39.72
2023-01-25T16:41:47.384Z,41.05
2023-01-25T16:44:13.888Z,40.95
2023-01-25T16:46:40.337Z,40.15
2023-01-25T16:49:09.759Z,42.22
2023-01-25T16:51:37.208Z,40.75
2023-01-25T16:54:03.815Z,40.75
2023-01-25T16:56:32.706Z,42.50
2023-01-25T16:59:05.219Z,42.03
2023-01-25T17:01:32.169Z,40.20
2023-01-25T17:03:59.007Z,38.47
2023-01-25T17:06:28.482Z,38.75
2023-01-25T17:08:57.930Z,38.60
2023-01-25T17:11:25.258Z,40.53
2023-01-25T17:13:54.130Z,38.60
2023-01-25T17:16:22.496Z,39.97
2023-01-25T17:18:57.039Z,39.15
2023-01-25T17:21:23.576Z,41.13
2023-01-25T17:23:50.868Z,40.22
2023-01-25T17:26:19.735Z,41.03
2023-01-25T17:28:46.984Z,43.05
2023-01-25T17:31:19.754Z,42.58
2023-01-25T17:33:46.913Z,41.97
2023-01-25T17:36:15.028Z,42.03
2023-01-25T17:38:42.164Z,41.00
2023-01-25T17:41:11.790Z,43.17
2023-01-25T17:43:38.716Z,43.40
2023-01-25T17:46:20.321Z,41.03
2023-01-25T17:48:48.131Z,43.42
2023-01-25T17:51:14.970Z,45.35
2023-01-25T17:53:41.413Z,40.47
2023-01-25T17:56:08.487Z,41.80
2023-01-25T17:58:36.949Z,43.33
2023-01-25T18:01:24.380Z,41.30
2023-01-25T18:03:53.397Z,39.95
2023-01-25T18:06:22.555Z,41.13
2023-01-25T18:08:51.161Z,39.17
2023-01-25T18:11:21.008Z,41.70
2023-01-25T18:13:49.984Z,38.33
2023-01-25T18:16:18.284Z,41.50
2023-01-25T18:18:45.805Z,41.92
2023-01-25T18:21:22.206Z,41.50
2023-01-25T18:23:48.866Z,39.40
2023-01-25T18:26:21.497Z,39.88
2023-01-25T18:28:48.237Z,40.92
2023-01-25T18:31:18.832Z,37.85
2023-01-25T18:33:45.400Z,36.42
2023-01-25T18:36:18.750Z,37.17
2023-01-25T18:38:45.562Z,36.13
2023-01-25T18:41:12.732Z,34.65
2023-01-25T18:43:39.261Z,36.92
2023-01-25T18:46:05.798Z,36.83
2023-01-25T18:48:32.610Z,35.67
2023-01-25T18:51:08.112Z,36.28
2023-01-25T18:53:36.572Z,38.47
2023-01-25T18:56:08.260Z,37.72
2023-01-25T18:58:36.921Z,39.40
2023-01-25T19:01:12.240Z,36.17
2023-01-25T19:03:38.675Z,38.08
2023-01-25T19:06:05.309Z,38.25
2023-01-25T19:08:33.257Z,38.55
2023-01-25T19:11:06.075Z,40.50
2023-01-25T19:13:37.336Z,37.75
2023-01-25T19:16:10.571Z,39.50
2023-01-25T19:18:40.529Z,39.22
2023-01-25T19:21:09.000Z,39.22
2023-01-25T19:23:38.364Z,37.70
2023-01-25T19:26:06.468Z,38.58
2023-01-25T19:28:34.767Z,39.25
2023-01-25T19:31:09.566Z,41.15
2023-01-25T19:33:36.411Z,41.78
2023-01-25T19:36:04.662Z,40.20
2023-01-25T19:38:31.957Z,41.40
2023-01-25T19:41:09.717Z,39.63
2023-01-25T19:43:36.515Z,40.10
2023-01-25T19:46:26.733Z,40.13
2023-01-25T19:48:54.395Z,37.70
2023-01-25T19:51:22.668Z,39.25
2023-01-25T19:53:58.949Z,38.75
2023-01-25T19:56:30.268Z,37.47
2023-01-25T19:58:56.750Z,37.80
2023-01-25T20:01:28.895Z,38.03
2023-01-25T20:03:57.817Z,37.78
2023-01-25T20:06:25.763Z,37.72
2023-01-25T20:08:53.094Z,34.78
2023-01-25T20:11:24.819Z,35.55
2023-01-25T20:13:53.674Z,34.20
2023-01-25T20:16:20.287Z,36.47
2023-01-25T20:18:48.627Z,36.67
2023-01-25T20:21:17.721Z,37.40
2023-01-25T20:23:49.510Z,37.88
2023-01-25T20:26:19.469Z,37.47
2023-01-25T20:28:51.448Z,38.17
2023-01-25T20:31:20.830Z,39.45
2023-01-25T20:33:47.746Z,39.33
2023-01-25T20:36:14.160Z,38.75
2023-01-25T20:38:40.688Z,40.25
2023-01-25T20:41:09.555Z,40.50
2023-01-25T20:43:35.995Z,39.97
2023-01-25T20:46:03.254Z,42.30
2023-01-25T20:48:31.108Z,39.42
2023-01-25T20:51:01.914Z,40.00
2023-01-25T20:53:29.763Z,41.22
2023-01-25T20:55:58.125Z,40.35
2023-01-25T20:58:24.653Z,40.42
2023-01-25T21:00:51.258Z,39.97
2023-01-25T21:03:17.623Z,40.47
2023-01-25T21:05:55.119Z,39.15
2023-01-25T21:08:22.174Z,39.17
2023-01-25T21:10:57.272Z,37.22
2023-01-25T21:13:24.760Z,39.60
2023-01-25T21:16:05.870Z,37.08
2023-01-25T21:18:37.810Z,36.65
2023-01-25T21:21:09.779Z,35.83
2023-01-25T21:23:38.843Z,36.28
2023-01-25T21:26:06.465Z,36.92
2023-01-25T21:28:33.637Z,36.53
2023-01-25T21:31:20.783Z,38.15
2023-01-25T21:33:47.867Z,36.88
2023-01-25T21:36:15.718Z,37.25
2023-01-25T21:38:44.372Z,37.25
2023-01-25T21:41:14.143Z,37.13
2023-01-25T21:43:58.941Z,35.25
2023-01-25T21:46:27.065Z,34.80
2023-01-25T21:49:19.941Z,33.90
2023-01-25T21:51:51.738Z,32.22
2023-01-25T21:54:20.868Z,34.20
2023-01-25T21:56:49.208Z,36.40
2023-01-25T21:59:16.184Z,34.47
2023-01-25T22:01:43.095Z,35.58
2023-01-25T22:04:10.061Z,36.63
2023-01-25T22:06:36.456Z,39.05
2023-01-25T22:09:03.189Z,36.25
2023-01-25T22:11:29.593Z,38.22
2023-01-25T22:13:56.089Z,36.65
2023-01-25T22:16:22.689Z,37.72
2023-01-25T22:18:49.172Z,37.10
2023-01-25T22:21:20.052Z,37.67
2023-01-25T22:23:47.484Z,36.88
2023-01-25T22:26:16.837Z,37.25
2023-01-25T22:28:54.973Z,40.50
2023-01-25T22:31:23.841Z,40.35
2023-01-25T22:33:51.331Z,41.47
2023-01-25T22:36:19.676Z,41.40
2023-01-25T22:38:46.183Z,42.28
2023-01-25T22:41:14.655Z,42.67
2023-01-25T22:43:41.408Z,41.58
2023-01-25T22:46:11.450Z,42.97
2023-01-25T22:48:37.795Z,43.80
2023-01-25T22:51:13.416Z,43.25
2023-01-25T22:56:10.272Z,40.03
2023-01-25T22:58:38.824Z,41.50
2023-01-25T23:01:09.637Z,41.17
2023-01-25T23:03:36.973Z,40.88
2023-01-25T23:06:06.916Z,43.30
2023-01-25T23:08:35.733Z,42.63
2023-01-25T23:11:06.105Z,42.10
2023-01-25T23:13:32.998Z,41.53
2023-01-25T23:16:08.518Z,43.08
2023-01-25T23:21:28.049Z,36.95
2023-01-25T23:23:55.943Z,38.40
2023-01-25T23:26:23.394Z,41.83
2023-01-25T23:28:54.495Z,42.13
2023-01-25T23:31:24.038Z,42.15
2023-01-25T23:33:53.431Z,40.63
2023-01-25T23:36:23.764Z,40.03
2023-01-25T23:38:50.432Z,39.90
2023-01-25T23:41:18.513Z,40.97
2023-01-25T23:43:45.423Z,41.88
2023-01-25T23:46:14.183Z,41.05
2023-01-25T23:48:41.656Z,41.30
2023-01-25T23:51:08.752Z,40.50
2023-01-25T23:53:35.127Z,41.58
2023-01-25T23:56:05.932Z,42.38
2023-01-25T23:58:37.194Z,40.80
